createdAt,value
2022-09-15T00:05:02.695Z,89.36
2022-09-15T00:10:07.716Z,89.37
2022-09-15T00:15:14.888Z,89.72
2022-09-15T00:20:19.983Z,89.88
2022-09-15T00:25:22.814Z,90.15
2022-09-15T00:30:25.807Z,90.08
2022-09-15T00:35:28.721Z,90.24
2022-09-15T00:40:31.648Z,90.14
2022-09-15T00:45:34.573Z,90.41
2022-09-15T00:50:39.760Z,90.72
2022-09-15T00:55:47.480Z,90.81
2022-09-15T01:01:09.312Z,91.00
2022-09-15T01:06:14.404Z,91.35
2022-09-15T01:11:17.889Z,90.95
2022-09-15T01:22:20.024Z,91.48
2022-09-15T01:27:42.692Z,91.73
2022-09-15T01:33:04.344Z,91.92
2022-09-15T01:38:32.455Z,92.05
2022-09-15T01:43:42.938Z,92.24
2022-09-15T01:48:46.960Z,92.29
2022-09-15T01:53:52.852Z,92.34
2022-09-15T01:58:55.751Z,92.47
2022-09-15T02:04:09.198Z,92.63
2022-09-15T02:09:27.156Z,92.43
2022-09-15T02:14:56.129Z,92.84
2022-09-15T02:20:16.790Z,92.88
2022-09-15T02:25:30.760Z,92.52
2022-09-15T02:30:37.993Z,92.69
2022-09-15T02:35:42.373Z,92.96
2022-09-15T02:40:45.404Z,93.12
2022-09-15T02:45:49.842Z,93.14
2022-09-15T02:50:52.687Z,93.26
2022-09-15T02:55:55.555Z,93.17
2022-09-15T03:00:58.500Z,93.33
2022-09-15T03:06:17.027Z,93.52
2022-09-15T03:11:23.410Z,94.01
2022-09-15T03:16:27.957Z,94.19
2022-09-15T03:21:30.959Z,94.34
2022-09-15T03:26:33.861Z,94.46
2022-09-15T03:31:36.877Z,94.65
2022-09-15T03:36:39.880Z,95.08
2022-09-15T03:41:42.778Z,95.48
2022-09-15T03:46:45.997Z,95.84
2022-09-15T03:51:48.893Z,96.09
2022-09-15T03:56:52.309Z,96.20
2022-09-15T04:01:55.188Z,96.31
2022-09-15T04:06:58.220Z,96.28
2022-09-15T04:12:01.126Z,96.22
2022-09-15T04:17:04.230Z,96.15
2022-09-15T04:22:07.135Z,96.13
2022-09-15T04:27:10.243Z,96.42
2022-09-15T04:32:13.054Z,97.44
2022-09-15T04:37:15.952Z,97.73
2022-09-15T04:42:21.113Z,98.30
2022-09-15T04:47:24.008Z,99.43
2022-09-15T04:52:26.914Z,99.88
2022-09-15T04:57:29.821Z,100.00
2022-09-15T05:02:33.542Z,100.00
2022-09-15T05:07:36.548Z,100.00
2022-09-15T05:12:39.457Z,100.00
2022-09-15T05:17:42.367Z,100.00
2022-09-15T05:22:46.085Z,99.99
2022-09-15T05:27:48.881Z,99.92
2022-09-15T05:32:53.597Z,99.21
2022-09-15T05:37:57.247Z,98.55
2022-09-15T05:43:00.151Z,98.10
2022-09-15T05:48:04.143Z,97.05
2022-09-15T05:53:07.676Z,96.01
2022-09-15T05:58:11.123Z,98.88
2022-09-15T06:03:15.556Z,92.07
2022-09-15T06:08:18.462Z,78.80
2022-09-15T06:13:21.362Z,69.14
2022-09-15T06:18:24.265Z,64.41
2022-09-15T06:23:27.178Z,59.94
2022-09-15T06:28:29.955Z,55.68
2022-09-15T06:33:32.875Z,53.35
2022-09-15T06:38:35.678Z,51.84
2022-09-15T06:43:39.317Z,52.34
2022-09-15T06:48:45.249Z,50.22
2022-09-15T06:53:51.681Z,48.71
2022-09-15T06:58:58.032Z,49.01
2022-09-15T07:04:09.989Z,48.48
2022-09-15T07:09:13.580Z,48.08
2022-09-15T07:14:16.381Z,46.27
2022-09-15T07:19:19.594Z,45.43
2022-09-15T07:24:22.395Z,45.51
2022-09-15T07:29:25.402Z,46.40
2022-09-15T07:34:29.635Z,46.65
2022-09-15T07:39:33.364Z,46.42
2022-09-15T07:44:36.470Z,45.87
2022-09-15T07:49:39.476Z,44.96
2022-09-15T07:54:42.381Z,44.69
2022-09-15T07:59:45.291Z,45.51
2022-09-15T08:04:49.007Z,45.59
2022-09-15T08:09:52.012Z,45.45
2022-09-15T08:14:54.813Z,45.12
2022-09-15T08:19:57.613Z,45.42
2022-09-15T08:25:00.620Z,45.20
2022-09-15T08:30:05.039Z,45.14
2022-09-15T08:35:11.551Z,45.97
2022-09-15T08:40:22.486Z,48.37
2022-09-15T08:45:34.047Z,49.42
2022-09-15T08:50:47.805Z,50.61
2022-09-15T08:55:54.271Z,51.85
2022-09-15T09:01:29.722Z,52.60
2022-09-15T09:06:51.508Z,53.71
2022-09-15T09:12:15.819Z,53.88
2022-09-15T09:17:57.936Z,53.43
2022-09-15T09:23:04.118Z,52.37
2022-09-15T09:28:20.435Z,52.05
2022-09-15T09:33:47.935Z,53.70
2022-09-15T09:38:51.438Z,53.73
2022-09-15T09:43:56.671Z,53.84
2022-09-15T09:49:10.802Z,53.01
2022-09-15T09:54:23.083Z,53.77
2022-09-15T09:59:34.694Z,55.87
2022-09-15T10:04:43.203Z,56.29
2022-09-15T10:09:58.423Z,56.77
2022-09-15T10:15:07.773Z,58.24
2022-09-15T10:20:35.721Z,59.27
2022-09-15T10:31:04.018Z,59.62
2022-09-15T10:36:24.518Z,60.88
2022-09-15T10:41:35.205Z,61.98
2022-09-15T10:46:59.583Z,62.80
2022-09-15T10:52:18.299Z,63.69
2022-09-15T10:58:02.457Z,64.49
2022-09-15T11:03:26.253Z,65.26
2022-09-15T11:08:47.895Z,65.64
2022-09-15T11:14:07.491Z,63.06
2022-09-15T11:19:32.000Z,62.77
2022-09-15T11:24:48.524Z,63.45
2022-09-15T11:30:09.558Z,64.85
2022-09-15T11:35:35.407Z,64.27
2022-09-15T11:41:03.490Z,63.59
2022-09-15T11:46:11.975Z,62.89
2022-09-15T11:51:20.672Z,63.04
2022-09-15T11:56:37.097Z,62.08
2022-09-15T12:01:46.085Z,61.93
2022-09-15T12:06:55.436Z,61.28
2022-09-15T12:12:06.076Z,60.60
2022-09-15T12:17:18.684Z,59.33
2022-09-15T12:23:04.590Z,58.84
2022-09-15T12:28:22.574Z,59.35
2022-09-15T12:33:56.894Z,57.93
2022-09-15T12:39:01.011Z,57.68
2022-09-15T12:44:21.977Z,56.31
2022-09-15T12:49:35.630Z,55.46
2022-09-15T12:54:42.786Z,53.82
2022-09-15T12:59:45.944Z,54.39
2022-09-15T13:04:54.495Z,54.28
2022-09-15T13:10:16.857Z,53.82
2022-09-15T13:15:22.513Z,53.10
2022-09-15T13:20:33.608Z,52.97
2022-09-15T13:25:40.782Z,53.17
2022-09-15T13:31:14.796Z,53.27
2022-09-15T13:42:32.644Z,53.67
2022-09-15T13:47:47.027Z,54.22
2022-09-15T13:53:11.431Z,54.05
2022-09-15T14:03:45.657Z,54.42
2022-09-15T14:08:56.484Z,54.11
2022-09-15T14:14:03.416Z,53.59
2022-09-15T14:19:40.075Z,53.82
2022-09-15T14:24:43.279Z,54.36
2022-09-15T14:29:50.341Z,57.70
2022-09-15T14:34:55.349Z,59.66
2022-09-15T14:40:00.656Z,61.59
2022-09-15T14:50:42.118Z,63.84
2022-09-15T14:55:57.239Z,64.76
2022-09-15T15:01:30.450Z,65.38
2022-09-15T15:06:51.648Z,65.96
2022-09-15T15:12:00.745Z,65.51
2022-09-15T15:17:08.689Z,65.22
2022-09-15T15:22:14.439Z,65.12
2022-09-15T15:27:32.591Z,65.69
2022-09-15T15:32:35.596Z,65.80
2022-09-15T15:37:38.501Z,66.01
2022-09-15T15:43:02.347Z,65.79
2022-09-15T15:48:06.718Z,65.57
2022-09-15T15:53:09.656Z,65.23
2022-09-15T15:58:13.671Z,64.83
2022-09-15T16:03:18.086Z,64.20
2022-09-15T16:08:24.463Z,64.01
2022-09-15T16:13:28.593Z,63.86
2022-09-15T16:18:31.534Z,63.85
2022-09-15T16:23:34.541Z,64.01
2022-09-15T16:28:37.956Z,64.28
2022-09-15T16:33:42.606Z,64.36
2022-09-15T16:38:45.790Z,64.36
2022-09-15T16:43:49.397Z,64.39
2022-09-15T16:48:52.256Z,64.40
2022-09-15T16:53:55.149Z,64.37
2022-09-15T16:59:00.416Z,64.56
2022-09-15T17:04:09.204Z,64.92
2022-09-15T17:09:12.261Z,65.68
2022-09-15T17:14:18.721Z,66.69
2022-09-15T17:19:24.191Z,67.32
2022-09-15T17:24:27.410Z,67.48
2022-09-15T17:29:30.245Z,67.23
2022-09-15T17:34:33.117Z,66.90
2022-09-15T17:39:36.231Z,66.60
2022-09-15T17:44:39.231Z,66.70
2022-09-15T17:49:42.136Z,67.19
2022-09-15T17:54:45.039Z,67.77
2022-09-15T17:59:47.955Z,68.67
2022-09-15T18:04:51.047Z,69.41
2022-09-15T18:09:55.180Z,70.45
2022-09-15T18:14:58.290Z,71.06
2022-09-15T18:20:01.603Z,71.87
2022-09-15T18:25:05.176Z,72.65
2022-09-15T18:30:09.114Z,73.84
2022-09-15T18:35:18.324Z,74.11
2022-09-15T18:40:22.459Z,74.46
2022-09-15T18:45:26.296Z,75.03
2022-09-15T18:50:29.257Z,75.50
2022-09-15T18:55:32.762Z,76.04
2022-09-15T19:00:36.795Z,76.76
2022-09-15T19:05:40.235Z,77.68
2022-09-15T19:10:44.481Z,78.12
2022-09-15T19:15:49.229Z,78.83
2022-09-15T19:20:54.373Z,79.53
2022-09-15T19:25:57.276Z,80.62
2022-09-15T19:31:04.061Z,81.65
2022-09-15T19:36:27.296Z,82.85
2022-09-15T19:41:32.246Z,83.30
2022-09-15T19:46:35.116Z,83.88
2022-09-15T19:51:38.459Z,84.79
2022-09-15T19:56:41.323Z,84.91
2022-09-15T20:01:44.642Z,85.52
2022-09-15T20:06:48.051Z,85.94
2022-09-15T20:11:51.062Z,86.29
2022-09-15T20:16:56.214Z,86.64
2022-09-15T20:22:01.987Z,87.27
2022-09-15T20:27:05.107Z,88.31
2022-09-15T20:32:08.105Z,88.75
2022-09-15T20:37:11.937Z,89.58
2022-09-15T20:42:14.938Z,89.99
2022-09-15T20:47:17.954Z,90.40
2022-09-15T20:52:20.845Z,90.86
2022-09-15T20:57:24.064Z,90.65
2022-09-15T21:02:27.081Z,90.96
2022-09-15T21:07:30.071Z,91.90
2022-09-15T21:12:34.202Z,92.03
2022-09-15T21:17:37.220Z,91.80
2022-09-15T21:22:41.241Z,92.34
2022-09-15T21:27:46.409Z,92.54
2022-09-15T21:32:49.301Z,92.79
2022-09-15T21:37:52.105Z,93.49
2022-09-15T21:42:55.127Z,94.30
2022-09-15T21:47:58.014Z,94.46
2022-09-15T21:53:00.813Z,94.95
2022-09-15T21:58:03.717Z,95.31
2022-09-15T22:03:07.115Z,95.48
2022-09-15T22:08:11.369Z,95.58
2022-09-15T22:13:14.273Z,95.88
2022-09-15T22:18:17.986Z,96.03
2022-09-15T22:23:21.106Z,96.27
2022-09-15T22:28:23.996Z,96.71
2022-09-15T22:33:27.122Z,97.17
2022-09-15T22:38:30.736Z,96.83
2022-09-15T22:43:33.846Z,96.65
2022-09-15T22:48:41.135Z,96.78
2022-09-15T22:53:46.347Z,97.30
2022-09-15T22:58:50.545Z,97.72
2022-09-15T23:03:59.505Z,97.48
2022-09-15T23:09:06.951Z,96.83
2022-09-15T23:14:15.447Z,96.74
2022-09-15T23:19:18.340Z,96.22
2022-09-15T23:24:21.249Z,95.57
2022-09-15T23:29:26.402Z,94.37
2022-09-15T23:34:29.407Z,94.07
2022-09-15T23:39:32.316Z,94.42
2022-09-15T23:44:35.219Z,95.48
2022-09-15T23:49:38.120Z,96.41
2022-09-15T23:54:40.923Z,97.72
2022-09-15T23:59:44.041Z,99.22
